sensor_id;sensor_type;location;lat;lon;timestamp;temperature;humidity
24224;DHT22;12359;49.716;9.212;2024-02-14T00:02:11;3.60;37.10
24224;DHT22;12359;49.716;9.212;2024-02-14T00:04:37;3.60;35.60
24224;DHT22;12359;49.716;9.212;2024-02-14T00:07:04;3.60;32.20
24224;DHT22;12359;49.716;9.212;2024-02-14T00:09:30;3.50;27.90
24224;DHT22;12359;49.716;9.212;2024-02-14T00:11:56;3.50;23.10
24224;DHT22;12359;49.716;9.212;2024-02-14T00:14:22;3.40;22.30
24224;DHT22;12359;49.716;9.212;2024-02-14T00:16:47;3.40;18.80
24224;DHT22;12359;49.716;9.212;2024-02-14T00:19:13;3.30;20.20
24224;DHT22;12359;49.716;9.212;2024-02-14T00:21:39;3.30;35.50
24224;DHT22;12359;49.716;9.212;2024-02-14T00:24:05;3.30;38.80
24224;DHT22;12359;49.716;9.212;2024-02-14T00:26:31;3.30;42.70
24224;DHT22;12359;49.716;9.212;2024-02-14T00:28:57;3.20;42.40
24224;DHT22;12359;49.716;9.212;2024-02-14T00:31:22;3.20;42.90
24224;DHT22;12359;49.716;9.212;2024-02-14T00:33:48;3.30;42.90
24224;DHT22;12359;49.716;9.212;2024-02-14T00:36:14;3.20;40.40
24224;DHT22;12359;49.716;9.212;2024-02-14T00:38:40;3.20;37.60
24224;DHT22;12359;49.716;9.212;2024-02-14T00:41:06;3.20;37.60
24224;DHT22;12359;49.716;9.212;2024-02-14T00:43:31;3.20;48.60
24224;DHT22;12359;49.716;9.212;2024-02-14T00:45:57;3.20;49.30
24224;DHT22;12359;49.716;9.212;2024-02-14T00:48:23;3.20;46.30
24224;DHT22;12359;49.716;9.212;2024-02-14T00:50:49;3.20;40.60
24224;DHT22;12359;49.716;9.212;2024-02-14T00:53:15;3.20;37.60
24224;DHT22;12359;49.716;9.212;2024-02-14T00:55:40;3.10;30.60
24224;DHT22;12359;49.716;9.212;2024-02-14T00:58:06;3.10;27.60
24224;DHT22;12359;49.716;9.212;2024-02-14T01:00:32;3.00;25.10
24224;DHT22;12359;49.716;9.212;2024-02-14T01:02:58;3.00;23.90
24224;DHT22;12359;49.716;9.212;2024-02-14T01:05:24;3.00;22.50
24224;DHT22;12359;49.716;9.212;2024-02-14T01:07:50;3.00;27.20
24224;DHT22;12359;49.716;9.212;2024-02-14T01:10:16;3.00;26.80
24224;DHT22;12359;49.716;9.212;2024-02-14T01:12:43;3.10;36.00
24224;DHT22;12359;49.716;9.212;2024-02-14T01:15:09;3.20;43.40
24224;DHT22;12359;49.716;9.212;2024-02-14T01:17:35;3.20;46.90
24224;DHT22;12359;49.716;9.212;2024-02-14T01:20:06;3.30;46.10
24224;DHT22;12359;49.716;9.212;2024-02-14T01:22:34;3.40;48.90
24224;DHT22;12359;49.716;9.212;2024-02-14T01:25:00;3.50;49.60
24224;DHT22;12359;49.716;9.212;2024-02-14T01:27:26;3.50;47.70
24224;DHT22;12359;49.716;9.212;2024-02-14T01:29:53;3.60;47.30
24224;DHT22;12359;49.716;9.212;2024-02-14T01:32:20;3.60;45.00
24224;DHT22;12359;49.716;9.212;2024-02-14T01:34:46;3.60;40.90
24224;DHT22;12359;49.716;9.212;2024-02-14T01:37:11;3.60;39.10
24224;DHT22;12359;49.716;9.212;2024-02-14T01:39:37;3.60;43.80
24224;DHT22;12359;49.716;9.212;2024-02-14T01:42:03;3.60;37.20
24224;DHT22;12359;49.716;9.212;2024-02-14T01:44:33;3.60;37.40
24224;DHT22;12359;49.716;9.212;2024-02-14T01:47:00;3.60;33.90
24224;DHT22;12359;49.716;9.212;2024-02-14T01:49:26;3.60;30.60
24224;DHT22;12359;49.716;9.212;2024-02-14T01:52:01;3.70;35.80
24224;DHT22;12359;49.716;9.212;2024-02-14T01:54:28;3.70;39.00
24224;DHT22;12359;49.716;9.212;2024-02-14T01:56:55;3.80;41.80
24224;DHT22;12359;49.716;9.212;2024-02-14T01:59:21;3.90;43.50
24224;DHT22;12359;49.716;9.212;2024-02-14T02:01:48;4.00;42.00
24224;DHT22;12359;49.716;9.212;2024-02-14T02:04:14;4.10;39.20
24224;DHT22;12359;49.716;9.212;2024-02-14T02:06:39;4.20;34.60
24224;DHT22;12359;49.716;9.212;2024-02-14T02:09:08;4.20;32.90
24224;DHT22;12359;49.716;9.212;2024-02-14T02:11:50;4.20;23.00
24224;DHT22;12359;49.716;9.212;2024-02-14T02:14:16;4.20;25.90
24224;DHT22;12359;49.716;9.212;2024-02-14T02:16:43;4.30;27.40
24224;DHT22;12359;49.716;9.212;2024-02-14T02:19:09;4.40;26.70
24224;DHT22;12359;49.716;9.212;2024-02-14T02:21:38;4.40;17.30
24224;DHT22;12359;49.716;9.212;2024-02-14T02:24:04;4.40;20.60
24224;DHT22;12359;49.716;9.212;2024-02-14T02:26:30;4.50;19.20
24224;DHT22;12359;49.716;9.212;2024-02-14T02:28:56;4.50;20.20
24224;DHT22;12359;49.716;9.212;2024-02-14T02:31:22;4.50;20.10
24224;DHT22;12359;49.716;9.212;2024-02-14T02:33:48;4.60;17.90
24224;DHT22;12359;49.716;9.212;2024-02-14T02:36:14;4.50;18.50
24224;DHT22;12359;49.716;9.212;2024-02-14T02:38:41;4.60;17.90
24224;DHT22;12359;49.716;9.212;2024-02-14T02:41:07;4.60;17.10
24224;DHT22;12359;49.716;9.212;2024-02-14T02:43:34;4.60;17.70
24224;DHT22;12359;49.716;9.212;2024-02-14T02:46:00;4.60;16.90
24224;DHT22;12359;49.716;9.212;2024-02-14T02:48:26;4.60;13.40
24224;DHT22;12359;49.716;9.212;2024-02-14T02:50:52;4.60;13.30
24224;DHT22;12359;49.716;9.212;2024-02-14T02:53:18;4.60;14.60
24224;DHT22;12359;49.716;9.212;2024-02-14T02:55:44;4.60;9.60
24224;DHT22;12359;49.716;9.212;2024-02-14T02:58:10;4.60;12.30
24224;DHT22;12359;49.716;9.212;2024-02-14T03:00:36;4.60;12.30
24224;DHT22;12359;49.716;9.212;2024-02-14T03:03:02;4.60;12.70
24224;DHT22;12359;49.716;9.212;2024-02-14T03:05:30;4.60;13.80
24224;DHT22;12359;49.716;9.212;2024-02-14T03:07:59;4.60;9.00
24224;DHT22;12359;49.716;9.212;2024-02-14T03:10:25;4.60;12.60
24224;DHT22;12359;49.716;9.212;2024-02-14T03:12:51;4.60;11.80
24224;DHT22;12359;49.716;9.212;2024-02-14T03:15:18;4.50;11.80
24224;DHT22;12359;49.716;9.212;2024-02-14T03:17:45;4.50;7.60
24224;DHT22;12359;49.716;9.212;2024-02-14T03:20:11;4.50;10.90
24224;DHT22;12359;49.716;9.212;2024-02-14T03:22:41;4.50;10.10
24224;DHT22;12359;49.716;9.212;2024-02-14T03:25:18;4.50;11.20
24224;DHT22;12359;49.716;9.212;2024-02-14T03:27:44;4.40;7.90
24224;DHT22;12359;49.716;9.212;2024-02-14T03:30:15;4.40;9.90
24224;DHT22;12359;49.716;9.212;2024-02-14T03:32:45;4.40;11.40
24224;DHT22;12359;49.716;9.212;2024-02-14T03:35:11;4.40;13.70
24224;DHT22;12359;49.716;9.212;2024-02-14T03:37:39;4.50;16.20
24224;DHT22;12359;49.716;9.212;2024-02-14T03:40:05;4.50;17.00
24224;DHT22;12359;49.716;9.212;2024-02-14T03:42:33;4.50;18.60
24224;DHT22;12359;49.716;9.212;2024-02-14T03:44:59;4.60;17.40
24224;DHT22;12359;49.716;9.212;2024-02-14T03:47:32;4.60;13.40
24224;DHT22;12359;49.716;9.212;2024-02-14T03:50:01;4.70;15.00
24224;DHT22;12359;49.716;9.212;2024-02-14T03:52:28;4.70;9.50
24224;DHT22;12359;49.716;9.212;2024-02-14T03:54:53;4.70;14.50
24224;DHT22;12359;49.716;9.212;2024-02-14T03:57:19;4.80;15.50
24224;DHT22;12359;49.716;9.212;2024-02-14T03:59:46;4.80;13.70
24224;DHT22;12359;49.716;9.212;2024-02-14T04:02:11;4.80;13.30
24224;DHT22;12359;49.716;9.212;2024-02-14T04:04:41;4.80;10.60
24224;DHT22;12359;49.716;9.212;2024-02-14T04:07:07;4.90;13.90
24224;DHT22;12359;49.716;9.212;2024-02-14T04:09:36;5.00;14.00
24224;DHT22;12359;49.716;9.212;2024-02-14T04:12:02;5.00;15.90
24224;DHT22;12359;49.716;9.212;2024-02-14T04:14:28;5.00;10.80
24224;DHT22;12359;49.716;9.212;2024-02-14T04:16:54;5.10;12.00
24224;DHT22;12359;49.716;9.212;2024-02-14T04:19:20;5.10;10.30
24224;DHT22;12359;49.716;9.212;2024-02-14T04:21:46;5.10;9.30
24224;DHT22;12359;49.716;9.212;2024-02-14T04:24:12;5.20;2.30
24224;DHT22;12359;49.716;9.212;2024-02-14T04:26:38;5.10;4.90
24224;DHT22;12359;49.716;9.212;2024-02-14T04:29:04;5.20;6.30
24224;DHT22;12359;49.716;9.212;2024-02-14T04:31:29;5.20;1.00
24224;DHT22;12359;49.716;9.212;2024-02-14T04:33:57;5.20;1.00
24224;DHT22;12359;49.716;9.212;2024-02-14T04:36:22;5.30;1.00
24224;DHT22;12359;49.716;9.212;2024-02-14T04:38:49;5.30;1.00
24224;DHT22;12359;49.716;9.212;2024-02-14T04:41:15;5.30;1.00
24224;DHT22;12359;49.716;9.212;2024-02-14T04:43:41;5.30;1.00
24224;DHT22;12359;49.716;9.212;2024-02-14T04:46:07;5.30;1.00
24224;DHT22;12359;49.716;9.212;2024-02-14T04:48:35;5.40;1.00
24224;DHT22;12359;49.716;9.212;2024-02-14T04:51:01;5.40;1.00
24224;DHT22;12359;49.716;9.212;2024-02-14T04:53:27;5.40;1.00
24224;DHT22;12359;49.716;9.212;2024-02-14T04:55:53;5.40;1.00
24224;DHT22;12359;49.716;9.212;2024-02-14T04:58:19;5.50;1.00
24224;DHT22;12359;49.716;9.212;2024-02-14T05:00:45;5.50;1.00
24224;DHT22;12359;49.716;9.212;2024-02-14T05:03:11;5.50;1.00
24224;DHT22;12359;49.716;9.212;2024-02-14T05:05:37;5.50;1.00
24224;DHT22;12359;49.716;9.212;2024-02-14T05:08:03;5.50;1.00
24224;DHT22;12359;49.716;9.212;2024-02-14T05:10:30;5.60;1.00
24224;DHT22;12359;49.716;9.212;2024-02-14T05:12:56;5.50;1.00
24224;DHT22;12359;49.716;9.212;2024-02-14T05:15:22;5.60;1.00
24224;DHT22;12359;49.716;9.212;2024-02-14T05:17:48;5.60;1.00
24224;DHT22;12359;49.716;9.212;2024-02-14T05:20:15;5.60;1.00
24224;DHT22;12359;49.716;9.212;2024-02-14T05:22:41;5.60;1.00
24224;DHT22;12359;49.716;9.212;2024-02-14T05:25:07;5.70;1.00
24224;DHT22;12359;49.716;9.212;2024-02-14T05:27:37;5.80;1.00
24224;DHT22;12359;49.716;9.212;2024-02-14T05:30:04;6.00;1.00
24224;DHT22;12359;49.716;9.212;2024-02-14T05:32:34;6.20;1.00
24224;DHT22;12359;49.716;9.212;2024-02-14T05:35:01;6.20;1.00
24224;DHT22;12359;49.716;9.212;2024-02-14T05:37:27;6.40;1.00
24224;DHT22;12359;49.716;9.212;2024-02-14T05:39:56;6.60;1.00
24224;DHT22;12359;49.716;9.212;2024-02-14T05:42:22;6.80;99.90
24224;DHT22;12359;49.716;9.212;2024-02-14T05:44:48;7.10;99.90
24224;DHT22;12359;49.716;9.212;2024-02-14T05:47:14;7.30;35.80
24224;DHT22;12359;49.716;9.212;2024-02-14T05:49:40;7.40;2.20
24224;DHT22;12359;49.716;9.212;2024-02-14T05:52:06;7.50;1.00
24224;DHT22;12359;49.716;9.212;2024-02-14T05:54:33;7.60;1.00
24224;DHT22;12359;49.716;9.212;2024-02-14T05:56:59;7.70;99.90
24224;DHT22;12359;49.716;9.212;2024-02-14T05:59:24;7.70;99.90
24224;DHT22;12359;49.716;9.212;2024-02-14T06:01:50;7.70;99.90
24224;DHT22;12359;49.716;9.212;2024-02-14T06:04:16;7.70;99.90
24224;DHT22;12359;49.716;9.212;2024-02-14T06:06:41;7.70;99.90
24224;DHT22;12359;49.716;9.212;2024-02-14T06:09:07;7.70;99.90
24224;DHT22;12359;49.716;9.212;2024-02-14T06:11:35;7.70;99.90
24224;DHT22;12359;49.716;9.212;2024-02-14T06:14:01;7.70;99.90
24224;DHT22;12359;49.716;9.212;2024-02-14T06:16:27;7.70;99.90
24224;DHT22;12359;49.716;9.212;2024-02-14T06:18:52;7.70;99.90
24224;DHT22;12359;49.716;9.212;2024-02-14T06:21:19;7.80;99.90
24224;DHT22;12359;49.716;9.212;2024-02-14T06:23:44;7.80;1.00
24224;DHT22;12359;49.716;9.212;2024-02-14T06:26:12;7.90;99.90
24224;DHT22;12359;49.716;9.212;2024-02-14T06:28:37;8.00;99.90
24224;DHT22;12359;49.716;9.212;2024-02-14T06:31:03;8.10;99.90
24224;DHT22;12359;49.716;9.212;2024-02-14T06:33:29;8.20;99.90
24224;DHT22;12359;49.716;9.212;2024-02-14T06:35:55;8.20;1.00
24224;DHT22;12359;49.716;9.212;2024-02-14T06:38:20;8.20;1.00
24224;DHT22;12359;49.716;9.212;2024-02-14T06:40:46;8.20;1.00
24224;DHT22;12359;49.716;9.212;2024-02-14T06:43:12;8.20;51.50
24224;DHT22;12359;49.716;9.212;2024-02-14T06:45:38;8.20;87.90
24224;DHT22;12359;49.716;9.212;2024-02-14T06:48:04;8.20;84.60
24224;DHT22;12359;49.716;9.212;2024-02-14T06:50:30;8.20;99.90
24224;DHT22;12359;49.716;9.212;2024-02-14T06:52:56;8.40;99.90
24224;DHT22;12359;49.716;9.212;2024-02-14T06:55:26;8.40;99.90
24224;DHT22;12359;49.716;9.212;2024-02-14T06:57:52;8.50;99.90
24224;DHT22;12359;49.716;9.212;2024-02-14T07:00:18;8.50;99.90
24224;DHT22;12359;49.716;9.212;2024-02-14T07:02:44;8.50;99.90
24224;DHT22;12359;49.716;9.212;2024-02-14T07:05:12;8.50;99.90
24224;DHT22;12359;49.716;9.212;2024-02-14T07:07:43;8.50;99.90
24224;DHT22;12359;49.716;9.212;2024-02-14T07:10:09;8.50;99.90
24224;DHT22;12359;49.716;9.212;2024-02-14T07:12:35;8.50;99.90
24224;DHT22;12359;49.716;9.212;2024-02-14T07:15:04;8.50;99.90
24224;DHT22;12359;49.716;9.212;2024-02-14T07:17:30;8.50;99.90
24224;DHT22;12359;49.716;9.212;2024-02-14T07:19:56;8.50;99.90
24224;DHT22;12359;49.716;9.212;2024-02-14T07:22:22;8.50;99.90
24224;DHT22;12359;49.716;9.212;2024-02-14T07:24:47;8.40;99.90
24224;DHT22;12359;49.716;9.212;2024-02-14T07:27:14;8.40;99.90
24224;DHT22;12359;49.716;9.212;2024-02-14T07:29:40;8.40;99.90
24224;DHT22;12359;49.716;9.212;2024-02-14T07:32:06;8.40;1.00
24224;DHT22;12359;49.716;9.212;2024-02-14T07:34:32;8.40;1.00
24224;DHT22;12359;49.716;9.212;2024-02-14T07:36:58;8.50;1.00
24224;DHT22;12359;49.716;9.212;2024-02-14T07:39:24;8.60;1.00
24224;DHT22;12359;49.716;9.212;2024-02-14T07:41:50;8.60;1.00
24224;DHT22;12359;49.716;9.212;2024-02-14T07:44:16;8.70;1.00
24224;DHT22;12359;49.716;9.212;2024-02-14T07:46:41;8.70;99.90
24224;DHT22;12359;49.716;9.212;2024-02-14T07:49:07;8.80;1.00
24224;DHT22;12359;49.716;9.212;2024-02-14T07:51:34;8.80;1.00
24224;DHT22;12359;49.716;9.212;2024-02-14T07:54:05;8.80;1.00
24224;DHT22;12359;49.716;9.212;2024-02-14T07:56:32;8.90;1.00
24224;DHT22;12359;49.716;9.212;2024-02-14T07:58:58;8.90;1.00
24224;DHT22;12359;49.716;9.212;2024-02-14T08:01:23;9.00;1.00
24224;DHT22;12359;49.716;9.212;2024-02-14T08:03:49;9.10;1.00
24224;DHT22;12359;49.716;9.212;2024-02-14T08:06:15;9.20;1.00
24224;DHT22;12359;49.716;9.212;2024-02-14T08:08:41;9.30;99.90
24224;DHT22;12359;49.716;9.212;2024-02-14T08:11:07;9.50;99.90
24224;DHT22;12359;49.716;9.212;2024-02-14T08:13:33;9.60;99.90
24224;DHT22;12359;49.716;9.212;2024-02-14T08:16:00;9.80;99.90
24224;DHT22;12359;49.716;9.212;2024-02-14T08:18:26;10.00;99.90
24224;DHT22;12359;49.716;9.212;2024-02-14T08:20:53;10.20;99.90
24224;DHT22;12359;49.716;9.212;2024-02-14T08:23:19;10.20;96.70
24224;DHT22;12359;49.716;9.212;2024-02-14T08:25:46;10.10;99.90
24224;DHT22;12359;49.716;9.212;2024-02-14T08:28:12;10.00;99.90
24224;DHT22;12359;49.716;9.212;2024-02-14T08:30:38;10.00;99.90
24224;DHT22;12359;49.716;9.212;2024-02-14T08:33:04;10.00;99.90
24224;DHT22;12359;49.716;9.212;2024-02-14T08:35:29;9.90;99.90
24224;DHT22;12359;49.716;9.212;2024-02-14T08:37:55;10.00;99.90
24224;DHT22;12359;49.716;9.212;2024-02-14T08:40:21;10.00;99.90
24224;DHT22;12359;49.716;9.212;2024-02-14T08:42:46;10.10;99.90
24224;DHT22;12359;49.716;9.212;2024-02-14T08:45:12;10.20;99.90
24224;DHT22;12359;49.716;9.212;2024-02-14T08:47:38;10.20;99.90
24224;DHT22;12359;49.716;9.212;2024-02-14T08:50:05;10.20;99.90
24224;DHT22;12359;49.716;9.212;2024-02-14T08:52:30;10.30;99.90
24224;DHT22;12359;49.716;9.212;2024-02-14T08:54:56;10.40;99.90
24224;DHT22;12359;49.716;9.212;2024-02-14T08:57:22;10.40;99.90
24224;DHT22;12359;49.716;9.212;2024-02-14T08:59:48;10.40;39.50
24224;DHT22;12359;49.716;9.212;2024-02-14T09:02:14;10.50;99.90
24224;DHT22;12359;49.716;9.212;2024-02-14T09:04:40;10.60;99.90
24224;DHT22;12359;49.716;9.212;2024-02-14T09:07:09;10.70;99.90
24224;DHT22;12359;49.716;9.212;2024-02-14T09:09:35;10.80;1.00
24224;DHT22;12359;49.716;9.212;2024-02-14T09:12:04;10.90;1.00
24224;DHT22;12359;49.716;9.212;2024-02-14T09:14:30;11.00;1.00
24224;DHT22;12359;49.716;9.212;2024-02-14T09:16:56;11.10;1.00
24224;DHT22;12359;49.716;9.212;2024-02-14T09:19:23;11.50;1.00
24224;DHT22;12359;49.716;9.212;2024-02-14T09:21:49;11.90;1.00
24224;DHT22;12359;49.716;9.212;2024-02-14T09:24:14;12.20;99.90
24224;DHT22;12359;49.716;9.212;2024-02-14T09:26:40;12.10;99.90
24224;DHT22;12359;49.716;9.212;2024-02-14T09:29:07;12.00;99.90
24224;DHT22;12359;49.716;9.212;2024-02-14T09:31:34;11.80;99.90
24224;DHT22;12359;49.716;9.212;2024-02-14T09:34:00;11.60;1.00
24224;DHT22;12359;49.716;9.212;2024-02-14T09:36:26;11.40;99.90
24224;DHT22;12359;49.716;9.212;2024-02-14T09:38:52;11.30;99.90
24224;DHT22;12359;49.716;9.212;2024-02-14T09:41:26;11.20;99.90
24224;DHT22;12359;49.716;9.212;2024-02-14T09:43:55;11.10;1.00
24224;DHT22;12359;49.716;9.212;2024-02-14T09:46:24;10.90;1.00
24224;DHT22;12359;49.716;9.212;2024-02-14T09:48:52;11.00;1.00
24224;DHT22;12359;49.716;9.212;2024-02-14T09:51:19;10.90;1.00
24224;DHT22;12359;49.716;9.212;2024-02-14T09:53:45;11.00;2.10
24224;DHT22;12359;49.716;9.212;2024-02-14T09:56:12;11.10;1.00
24224;DHT22;12359;49.716;9.212;2024-02-14T09:58:40;11.20;1.00
24224;DHT22;12359;49.716;9.212;2024-02-14T10:01:06;11.30;1.00
24224;DHT22;12359;49.716;9.212;2024-02-14T10:03:32;11.60;99.90
24224;DHT22;12359;49.716;9.212;2024-02-14T10:05:59;12.40;1.00
24224;DHT22;12359;49.716;9.212;2024-02-14T10:08:25;12.80;1.60
24224;DHT22;12359;49.716;9.212;2024-02-14T10:10:52;13.00;62.00
24224;DHT22;12359;49.716;9.212;2024-02-14T10:13:18;13.50;99.90
24224;DHT22;12359;49.716;9.212;2024-02-14T10:15:43;13.30;99.90
24224;DHT22;12359;49.716;9.212;2024-02-14T10:18:09;13.20;97.40
24224;DHT22;12359;49.716;9.212;2024-02-14T10:20:35;13.10;99.90
24224;DHT22;12359;49.716;9.212;2024-02-14T10:23:07;12.90;47.50
24224;DHT22;12359;49.716;9.212;2024-02-14T10:25:37;12.70;99.90
24224;DHT22;12359;49.716;9.212;2024-02-14T10:28:06;12.50;99.90
24224;DHT22;12359;49.716;9.212;2024-02-14T10:30:35;12.00;99.90
24224;DHT22;12359;49.716;9.212;2024-02-14T10:33:02;11.90;31.60
24224;DHT22;12359;49.716;9.212;2024-02-14T10:35:30;11.80;99.90
24224;DHT22;12359;49.716;9.212;2024-02-14T10:37:58;11.80;99.90
24224;DHT22;12359;49.716;9.212;2024-02-14T10:40:32;11.60;1.00
24224;DHT22;12359;49.716;9.212;2024-02-14T10:42:59;11.70;4.00
24224;DHT22;12359;49.716;9.212;2024-02-14T10:45:25;11.80;1.00
24224;DHT22;12359;49.716;9.212;2024-02-14T10:47:53;11.90;1.00
24224;DHT22;12359;49.716;9.212;2024-02-14T10:50:21;11.90;1.00
24224;DHT22;12359;49.716;9.212;2024-02-14T10:52:48;11.80;1.00
24224;DHT22;12359;49.716;9.212;2024-02-14T10:55:16;11.80;1.00
24224;DHT22;12359;49.716;9.212;2024-02-14T10:57:43;11.80;32.20
24224;DHT22;12359;49.716;9.212;2024-02-14T11:00:14;11.90;1.00
24224;DHT22;12359;49.716;9.212;2024-02-14T11:02:41;12.10;4.70
24224;DHT22;12359;49.716;9.212;2024-02-14T11:05:12;12.10;1.00
24224;DHT22;12359;49.716;9.212;2024-02-14T11:07:47;12.20;99.90
24224;DHT22;12359;49.716;9.212;2024-02-14T11:10:16;12.20;1.00
24224;DHT22;12359;49.716;9.212;2024-02-14T11:12:42;12.20;1.00
24224;DHT22;12359;49.716;9.212;2024-02-14T11:17:37;12.10;99.90
24224;DHT22;12359;49.716;9.212;2024-02-14T11:20:16;12.10;1.00
24224;DHT22;12359;49.716;9.212;2024-02-14T11:23:02;12.10;99.90
24224;DHT22;12359;49.716;9.212;2024-02-14T11:25:33;12.10;99.90
24224;DHT22;12359;49.716;9.212;2024-02-14T11:28:24;12.10;99.90
24224;DHT22;12359;49.716;9.212;2024-02-14T11:30:51;11.80;99.90
24224;DHT22;12359;49.716;9.212;2024-02-14T11:33:19;11.90;1.00
24224;DHT22;12359;49.716;9.212;2024-02-14T11:35:47;11.90;1.00
24224;DHT22;12359;49.716;9.212;2024-02-14T11:38:13;12.00;1.00
24224;DHT22;12359;49.716;9.212;2024-02-14T11:40:39;12.10;99.90
24224;DHT22;12359;49.716;9.212;2024-02-14T11:43:14;12.20;1.00
24224;DHT22;12359;49.716;9.212;2024-02-14T11:45:43;12.20;1.00
24224;DHT22;12359;49.716;9.212;2024-02-14T11:48:13;12.20;99.90
24224;DHT22;12359;49.716;9.212;2024-02-14T11:50:40;12.20;1.00
24224;DHT22;12359;49.716;9.212;2024-02-14T11:53:07;12.20;1.00
24224;DHT22;12359;49.716;9.212;2024-02-14T11:55:40;12.10;1.00
24224;DHT22;12359;49.716;9.212;2024-02-14T11:58:14;12.00;1.00
24224;DHT22;12359;49.716;9.212;2024-02-14T12:00:40;12.20;1.00
24224;DHT22;12359;49.716;9.212;2024-02-14T12:03:11;12.30;1.00
24224;DHT22;12359;49.716;9.212;2024-02-14T12:05:37;12.30;1.00
24224;DHT22;12359;49.716;9.212;2024-02-14T12:08:06;12.50;99.90
24224;DHT22;12359;49.716;9.212;2024-02-14T12:10:33;12.80;99.90
24224;DHT22;12359;49.716;9.212;2024-02-14T12:13:12;12.60;99.90
24224;DHT22;12359;49.716;9.212;2024-02-14T12:15:45;12.60;99.90
24224;DHT22;12359;49.716;9.212;2024-02-14T12:18:12;12.30;99.90
24224;DHT22;12359;49.716;9.212;2024-02-14T12:20:39;12.40;99.90
24224;DHT22;12359;49.716;9.212;2024-02-14T12:23:05;12.30;1.00
24224;DHT22;12359;49.716;9.212;2024-02-14T12:25:31;12.30;99.90
24224;DHT22;12359;49.716;9.212;2024-02-14T12:27:58;12.60;99.90
24224;DHT22;12359;49.716;9.212;2024-02-14T12:30:44;12.60;99.90
24224;DHT22;12359;49.716;9.212;2024-02-14T12:33:14;12.60;99.90
24224;DHT22;12359;49.716;9.212;2024-02-14T12:35:47;12.40;99.90
24224;DHT22;12359;49.716;9.212;2024-02-14T12:38:14;12.30;99.90
24224;DHT22;12359;49.716;9.212;2024-02-14T12:40:40;12.10;1.00
24224;DHT22;12359;49.716;9.212;2024-02-14T12:43:14;11.90;62.40
24224;DHT22;12359;49.716;9.212;2024-02-14T12:45:42;12.00;33.40
24224;DHT22;12359;49.716;9.212;2024-02-14T12:48:09;12.00;67.10
24224;DHT22;12359;49.716;9.212;2024-02-14T12:50:35;12.00;4.10
24224;DHT22;12359;49.716;9.212;2024-02-14T12:53:03;11.80;31.20
24224;DHT22;12359;49.716;9.212;2024-02-14T12:55:29;11.80;1.00
24224;DHT22;12359;49.716;9.212;2024-02-14T12:57:55;11.80;26.20
24224;DHT22;12359;49.716;9.212;2024-02-14T13:00:22;11.80;99.90
24224;DHT22;12359;49.716;9.212;2024-02-14T13:02:48;11.90;51.50
24224;DHT22;12359;49.716;9.212;2024-02-14T13:05:14;11.90;23.40
24224;DHT22;12359;49.716;9.212;2024-02-14T13:07:41;12.00;24.10
24224;DHT22;12359;49.716;9.212;2024-02-14T13:10:07;12.00;11.30
24224;DHT22;12359;49.716;9.212;2024-02-14T13:12:37;12.00;1.00
24224;DHT22;12359;49.716;9.212;2024-02-14T13:15:05;11.90;1.00
24224;DHT22;12359;49.716;9.212;2024-02-14T13:17:31;11.90;21.80
24224;DHT22;12359;49.716;9.212;2024-02-14T13:19:56;12.00;18.00
24224;DHT22;12359;49.716;9.212;2024-02-14T13:22:25;11.90;1.00
24224;DHT22;12359;49.716;9.212;2024-02-14T13:24:51;11.90;1.00
24224;DHT22;12359;49.716;9.212;2024-02-14T13:27:17;11.80;12.00
24224;DHT22;12359;49.716;9.212;2024-02-14T13:29:45;11.80;43.70
24224;DHT22;12359;49.716;9.212;2024-02-14T13:32:11;11.80;56.20
24224;DHT22;12359;49.716;9.212;2024-02-14T13:34:37;11.80;28.00
24224;DHT22;12359;49.716;9.212;2024-02-14T13:37:03;11.80;72.20
24224;DHT22;12359;49.716;9.212;2024-02-14T13:39:29;11.70;29.70
24224;DHT22;12359;49.716;9.212;2024-02-14T13:41:55;11.70;99.90
24224;DHT22;12359;49.716;9.212;2024-02-14T13:44:23;11.60;99.90
24224;DHT22;12359;49.716;9.212;2024-02-14T13:46:53;11.40;99.90
24224;DHT22;12359;49.716;9.212;2024-02-14T13:49:19;11.40;99.90
24224;DHT22;12359;49.716;9.212;2024-02-14T13:51:51;11.40;99.90
24224;DHT22;12359;49.716;9.212;2024-02-14T13:54:20;11.30;99.90
24224;DHT22;12359;49.716;9.212;2024-02-14T13:56:47;11.30;99.90
24224;DHT22;12359;49.716;9.212;2024-02-14T13:59:14;11.30;99.90
24224;DHT22;12359;49.716;9.212;2024-02-14T14:01:40;11.30;99.90
24224;DHT22;12359;49.716;9.212;2024-02-14T14:04:06;11.30;99.90
24224;DHT22;12359;49.716;9.212;2024-02-14T14:06:32;11.30;99.90
24224;DHT22;12359;49.716;9.212;2024-02-14T14:08:58;11.30;99.90
24224;DHT22;12359;49.716;9.212;2024-02-14T14:11:24;11.30;99.90
24224;DHT22;12359;49.716;9.212;2024-02-14T14:13:50;11.30;1.00
24224;DHT22;12359;49.716;9.212;2024-02-14T14:16:15;11.40;1.00
24224;DHT22;12359;49.716;9.212;2024-02-14T14:18:42;11.30;1.00
24224;DHT22;12359;49.716;9.212;2024-02-14T14:21:08;11.40;1.00
24224;DHT22;12359;49.716;9.212;2024-02-14T14:23:34;11.30;1.00
24224;DHT22;12359;49.716;9.212;2024-02-14T14:26:00;11.20;1.00
24224;DHT22;12359;49.716;9.212;2024-02-14T14:28:26;11.20;1.00
24224;DHT22;12359;49.716;9.212;2024-02-14T14:30:55;11.10;1.00
24224;DHT22;12359;49.716;9.212;2024-02-14T14:33:21;11.10;1.00
24224;DHT22;12359;49.716;9.212;2024-02-14T14:35:47;11.10;1.00
24224;DHT22;12359;49.716;9.212;2024-02-14T14:38:19;11.10;1.00
24224;DHT22;12359;49.716;9.212;2024-02-14T14:40:47;11.10;1.00
24224;DHT22;12359;49.716;9.212;2024-02-14T14:43:13;11.10;1.00
24224;DHT22;12359;49.716;9.212;2024-02-14T14:45:39;11.10;1.00
24224;DHT22;12359;49.716;9.212;2024-02-14T14:48:07;11.10;1.00
24224;DHT22;12359;49.716;9.212;2024-02-14T14:50:35;11.20;1.00
24224;DHT22;12359;49.716;9.212;2024-02-14T14:53:01;11.10;1.00
24224;DHT22;12359;49.716;9.212;2024-02-14T14:55:56;11.20;1.00
24224;DHT22;12359;49.716;9.212;2024-02-14T14:58:23;11.30;1.00
24224;DHT22;12359;49.716;9.212;2024-02-14T15:00:57;11.30;1.00
24224;DHT22;12359;49.716;9.212;2024-02-14T15:03:26;11.40;1.00
24224;DHT22;12359;49.716;9.212;2024-02-14T15:05:52;11.40;1.00
24224;DHT22;12359;49.716;9.212;2024-02-14T15:08:19;11.40;1.00
24224;DHT22;12359;49.716;9.212;2024-02-14T15:10:51;11.40;1.00
24224;DHT22;12359;49.716;9.212;2024-02-14T15:13:18;11.40;1.00
24224;DHT22;12359;49.716;9.212;2024-02-14T15:15:43;11.40;1.00
24224;DHT22;12359;49.716;9.212;2024-02-14T15:18:10;11.40;1.00
24224;DHT22;12359;49.716;9.212;2024-02-14T15:20:36;11.40;1.00
24224;DHT22;12359;49.716;9.212;2024-02-14T15:23:03;11.40;1.00
24224;DHT22;12359;49.716;9.212;2024-02-14T15:25:29;11.50;1.00
24224;DHT22;12359;49.716;9.212;2024-02-14T15:27:54;11.40;1.00
24224;DHT22;12359;49.716;9.212;2024-02-14T15:30:27;11.50;1.00
24224;DHT22;12359;49.716;9.212;2024-02-14T15:33:11;11.50;1.00
24224;DHT22;12359;49.716;9.212;2024-02-14T15:35:49;11.50;1.00
24224;DHT22;12359;49.716;9.212;2024-02-14T15:38:15;11.50;1.00
24224;DHT22;12359;49.716;9.212;2024-02-14T15:40:41;11.50;1.00
24224;DHT22;12359;49.716;9.212;2024-02-14T15:43:07;11.40;1.00
24224;DHT22;12359;49.716;9.212;2024-02-14T15:45:33;11.40;1.00
24224;DHT22;12359;49.716;9.212;2024-02-14T15:47:58;11.40;1.00